Time;durP1;ratioP1;P1;durP2;ratioP2;P2;SDS_P1;SDS_P2;PMS_P1;PMS_P2;Temp;Humidity;BMP_temperature;BMP_pressure;BME280_temperature;BME280_humidity;BME280_pressure;Samples;Min_cycle;Max_cycle;Signal;HPM_P1;HPM_P2
2022/05/05 00:01:51;;;;;;;6.63;5.90;;;14.30;99.40;;;;;;5198322;28;20484;-57
2022/05/05 00:04:22;;;;;;;6.77;5.50;;;14.30;99.50;;;;;;5203751;28;20207;-56
2022/05/05 00:06:53;;;;;;;10.07;6.20;;;14.30;99.50;;;;;;5194214;28;20207;-54
2022/05/05 00:09:23;;;;;;;7.40;5.87;;;14.30;99.40;;;;;;5203190;28;20261;-55
2022/05/05 00:14:43;;;;;;;6.70;5.47;;;14.30;99.70;;;;;;5205596;28;20556;-55
2022/05/05 00:17:13;;;;;;;6.67;6.07;;;14.30;99.90;;;;;;5203249;28;20434;-55
2022/05/05 00:19:44;;;;;;;6.33;5.73;;;14.30;99.70;;;;;;5199176;28;20234;-55
2022/05/05 00:22:15;;;;;;;6.13;5.57;;;14.30;99.80;;;;;;5201925;28;20188;-54
2022/05/05 00:24:45;;;;;;;7.23;6.53;;;14.30;99.50;;;;;;5207562;28;20698;-56
2022/05/05 00:27:16;;;;;;;6.47;5.87;;;14.30;99.20;;;;;;5201540;28;20207;-55
2022/05/05 00:29:48;;;;;;;7.17;5.83;;;14.30;98.90;;;;;;5217752;28;20211;-55
2022/05/05 00:32:19;;;;;;;7.40;6.67;;;14.30;98.60;;;;;;5206650;28;20180;-55
2022/05/05 00:34:49;;;;;;;11.07;6.03;;;14.30;98.60;;;;;;5202754;28;20821;-54
2022/05/05 00:37:20;;;;;;;5.73;5.23;;;14.20;98.60;;;;;;5202419;28;20199;-56
2022/05/05 00:39:51;;;;;;;5.93;5.43;;;14.30;98.80;;;;;;5203603;28;20203;-54
2022/05/05 00:42:22;;;;;;;6.97;5.53;;;14.30;99.20;;;;;;5206289;28;20212;-54
2022/05/05 00:44:52;;;;;;;6.63;6.13;;;14.30;99.40;;;;;;5197442;28;20298;-57
2022/05/05 00:47:23;;;;;;;7.80;5.83;;;14.30;99.90;;;;;;5215047;28;20544;-54
2022/05/05 00:49:53;;;;;;;7.20;6.50;;;14.30;99.90;;;;;;5199747;28;20203;-55
2022/05/05 00:52:24;;;;;;;20.30;11.00;;;14.30;99.90;;;;;;5202289;28;20201;-55
2022/05/05 00:54:56;;;;;;;7.30;6.43;;;14.30;99.90;;;;;;5202961;28;20184;-56
2022/05/05 00:57:28;;;;;;;6.87;6.17;;;14.20;99.90;;;;;;5201848;28;20191;-56
2022/05/05 01:00:00;;;;;;;6.17;4.80;;;14.20;99.90;;;;;;5202257;28;20466;-55
2022/05/05 01:02:33;;;;;;;6.43;5.93;;;14.20;99.90;;;;;;5209565;28;20418;-55
2022/05/05 01:05:04;;;;;;;5.93;5.43;;;14.20;99.90;;;;;;5200545;28;20498;-54
2022/05/05 01:07:34;;;;;;;10.90;7.33;;;14.10;99.90;;;;;;5204853;28;20532;-54
2022/05/05 01:10:05;;;;;;;8.60;7.70;;;14.10;99.90;;;;;;5203964;28;20570;-56
2022/05/05 01:12:35;;;;;;;7.23;6.10;;;14.10;99.90;;;;;;5198975;28;20175;-55
2022/05/05 01:15:06;;;;;;;7.40;6.77;;;14.10;99.90;;;;;;5202486;28;20183;-55
2022/05/05 01:17:37;;;;;;;9.70;7.47;;;13.90;99.90;;;;;;5203357;28;20558;-55
2022/05/05 01:20:11;;;;;;;7.47;6.73;;;13.80;99.90;;;;;;5202063;28;20713;-55
2022/05/05 01:22:42;;;;;;;7.77;6.77;;;13.70;99.90;;;;;;5200951;28;20186;-56
2022/05/05 01:28:11;;;;;;;7.43;6.73;;;13.50;99.90;;;;;;5205116;28;20551;-54
2022/05/05 01:30:44;;;;;;;7.10;6.10;;;13.50;99.90;;;;;;5186161;28;20474;-53
2022/05/05 01:33:16;;;;;;;6.40;5.80;;;13.40;99.90;;;;;;5201669;28;21061;-55
2022/05/05 01:35:51;;;;;;;6.30;5.80;;;13.30;99.90;;;;;;5197326;28;20481;-54
2022/05/05 01:38:24;;;;;;;9.57;5.50;;;13.30;99.90;;;;;;5196335;28;20773;-54
2022/05/05 01:40:54;;;;;;;6.60;5.43;;;13.20;99.90;;;;;;5203566;28;20465;-56
2022/05/05 01:43:25;;;;;;;8.30;5.77;;;13.20;99.90;;;;;;5191510;28;20438;-53
2022/05/05 01:45:55;;;;;;;13.60;5.87;;;13.20;99.90;;;;;;5204413;28;20241;-53
2022/05/05 01:48:27;;;;;;;5.30;4.90;;;13.10;99.90;;;;;;5201385;28;20192;-56
2022/05/05 01:50:58;;;;;;;5.53;4.90;;;13.10;99.90;;;;;;5200110;28;20645;-55
2022/05/05 01:53:36;;;;;;;4.87;4.43;;;13.00;99.90;;;;;;5198881;28;20465;-56
2022/05/05 01:56:11;;;;;;;5.20;4.70;;;13.00;99.90;;;;;;5198736;28;20442;-57
2022/05/05 01:58:42;;;;;;;6.73;4.87;;;13.00;99.90;;;;;;5202802;28;20461;-56
2022/05/05 02:01:13;;;;;;;6.20;4.30;;;13.00;99.90;;;;;;5202676;28;20450;-55
2022/05/05 02:03:43;;;;;;;10.13;5.13;;;13.00;99.90;;;;;;5200751;28;20439;-54
2022/05/05 02:06:16;;;;;;;5.87;5.23;;;12.90;99.90;;;;;;5202178;28;20204;-55
2022/05/05 02:08:46;;;;;;;9.30;4.90;;;12.90;99.90;;;;;;5202811;28;20183;-55
2022/05/05 02:11:17;;;;;;;7.00;4.90;;;12.80;99.90;;;;;;5203259;28;20462;-54
2022/05/05 02:13:47;;;;;;;6.27;4.80;;;12.80;99.90;;;;;;5198198;28;20184;-56
2022/05/05 02:16:18;;;;;;;4.93;4.63;;;12.80;99.90;;;;;;5186066;28;20188;-54
2022/05/05 02:18:48;;;;;;;15.03;4.80;;;12.70;99.90;;;;;;5197741;28;20184;-55
2022/05/05 02:21:19;;;;;;;10.97;6.00;;;12.70;99.90;;;;;;5195481;28;20198;-53
2022/05/05 02:23:49;;;;;;;4.73;4.37;;;12.80;99.90;;;;;;5185979;28;20625;-53
2022/05/05 02:26:20;;;;;;;7.80;5.93;;;12.80;99.90;;;;;;5201714;28;20212;-54
2022/05/05 02:28:50;;;;;;;11.67;5.00;;;12.80;99.90;;;;;;5197235;28;20603;-54
2022/05/05 02:31:21;;;;;;;6.57;5.40;;;12.70;99.90;;;;;;5200019;28;20176;-54
2022/05/05 02:33:51;;;;;;;7.10;5.90;;;12.60;99.90;;;;;;5202619;28;20191;-56
2022/05/05 02:39:11;;;;;;;7.23;5.20;;;12.50;99.90;;;;;;5194359;28;20318;-54
2022/05/05 02:41:41;;;;;;;8.47;6.60;;;12.50;99.90;;;;;;5198719;28;20536;-56
2022/05/05 02:44:12;;;;;;;14.70;5.47;;;12.50;99.90;;;;;;5201431;28;20211;-55
2022/05/05 02:46:42;;;;;;;7.53;5.63;;;12.50;99.90;;;;;;5191857;28;20647;-54
2022/05/05 02:49:14;;;;;;;19.03;6.87;;;12.50;99.90;;;;;;5198100;28;20200;-56
2022/05/05 02:51:45;;;;;;;6.53;5.93;;;12.50;99.90;;;;;;5200262;28;20599;-55
2022/05/05 02:57:05;;;;;;;6.90;6.20;;;12.50;99.90;;;;;;5197617;28;20218;-54
2022/05/05 02:59:35;;;;;;;7.47;5.90;;;12.50;99.90;;;;;;5203513;28;20498;-55
2022/05/05 03:02:06;;;;;;;6.37;5.90;;;12.50;99.90;;;;;;5192522;28;20511;-54
2022/05/05 03:04:36;;;;;;;12.57;5.60;;;12.50;99.90;;;;;;5181694;28;20283;-55
2022/05/05 03:07:07;;;;;;;8.50;6.13;;;12.50;99.90;;;;;;5193446;28;20208;-55
2022/05/05 03:09:39;;;;;;;11.83;6.60;;;12.50;99.90;;;;;;5203104;28;20640;-54
2022/05/05 03:12:10;;;;;;;7.77;6.40;;;12.50;99.90;;;;;;5201103;28;20266;-54
2022/05/05 03:14:41;;;;;;;10.73;6.03;;;12.50;99.90;;;;;;5201501;28;20445;-55
2022/05/05 03:17:11;;;;;;;8.33;5.40;;;12.40;99.90;;;;;;5201486;28;20469;-54
2022/05/05 03:19:42;;;;;;;6.37;5.83;;;12.40;99.90;;;;;;5200296;28;20226;-56
2022/05/05 03:22:12;;;;;;;10.10;6.80;;;12.50;99.90;;;;;;5196522;28;20270;-55
2022/05/05 03:24:43;;;;;;;17.73;6.80;;;12.40;99.90;;;;;;5196177;28;20195;-54
2022/05/05 03:27:13;;;;;;;13.20;6.60;;;12.40;99.90;;;;;;5200689;28;21696;-54
2022/05/05 03:29:44;;;;;;;7.67;6.90;;;12.40;99.90;;;;;;5201714;28;20208;-55
2022/05/05 03:32:15;;;;;;;21.27;7.07;;;12.30;99.90;;;;;;5197970;28;20191;-54
2022/05/05 03:34:46;;;;;;;10.10;7.20;;;12.30;99.90;;;;;;5196364;28;20452;-55
2022/05/05 03:37:16;;;;;;;10.07;6.60;;;12.20;99.90;;;;;;5199066;28;20446;-54
2022/05/05 03:39:47;;;;;;;11.13;7.03;;;12.20;99.90;;;;;;5194426;28;20310;-55
2022/05/05 03:42:17;;;;;;;8.57;7.07;;;12.20;99.90;;;;;;5199840;28;20621;-54
2022/05/05 03:44:48;;;;;;;9.10;6.90;;;12.20;99.90;;;;;;5200273;28;20219;-57
2022/05/05 03:47:19;;;;;;;23.50;7.80;;;12.10;99.90;;;;;;5198544;28;20215;-54
2022/05/05 03:49:49;;;;;;;7.33;6.23;;;12.10;99.90;;;;;;5199084;28;20203;-54
2022/05/05 03:52:20;;;;;;;14.80;7.67;;;12.10;99.90;;;;;;5199122;28;20266;-55
2022/05/05 03:54:50;;;;;;;9.83;7.83;;;12.10;99.90;;;;;;5196221;28;20291;-55
2022/05/05 03:57:21;;;;;;;14.37;7.50;;;12.10;99.90;;;;;;5198381;28;20547;-54
2022/05/05 03:59:51;;;;;;;16.20;7.70;;;12.00;99.90;;;;;;5197303;28;20592;-55
2022/05/05 04:02:22;;;;;;;9.63;7.13;;;12.00;99.90;;;;;;5191694;28;20584;-55
2022/05/05 04:04:53;;;;;;;10.27;7.23;;;11.90;99.90;;;;;;5196625;28;20202;-55
2022/05/05 04:07:23;;;;;;;12.63;8.23;;;11.80;99.90;;;;;;5201787;28;20204;-55
2022/05/05 04:09:54;;;;;;;9.67;6.93;;;11.80;99.90;;;;;;5195242;28;20642;-55
2022/05/05 04:12:24;;;;;;;13.00;7.83;;;11.70;99.90;;;;;;5195591;28;20190;-54
2022/05/05 04:14:55;;;;;;;12.43;8.80;;;11.70;99.90;;;;;;5209683;28;20191;-55
2022/05/05 04:17:25;;;;;;;12.50;7.90;;;11.70;99.90;;;;;;5200632;28;20726;-55
2022/05/05 04:19:56;;;;;;;11.30;8.10;;;11.80;99.90;;;;;;5188697;28;20222;-56
2022/05/05 04:22:26;;;;;;;15.47;7.60;;;11.70;99.90;;;;;;5199861;28;20194;-55
2022/05/05 04:24:57;;;;;;;23.60;8.43;;;11.70;99.90;;;;;;5196730;28;20210;-53
2022/05/05 04:27:28;;;;;;;16.00;7.57;;;11.70;99.90;;;;;;5197970;28;20657;-55
2022/05/05 04:29:58;;;;;;;10.70;7.93;;;11.60;99.90;;;;;;5198080;28;20204;-55
2022/05/05 04:32:30;;;;;;;11.90;7.73;;;11.70;99.90;;;;;;5212768;28;20674;-54
2022/05/05 04:35:00;;;;;;;28.93;8.70;;;11.70;99.90;;;;;;5197084;28;20193;-55
2022/05/05 04:37:31;;;;;;;12.10;9.00;;;11.80;99.90;;;;;;5199822;28;20769;-55
2022/05/05 04:40:02;;;;;;;7.83;7.03;;;11.80;99.90;;;;;;5199079;28;20200;-55
2022/05/05 04:42:33;;;;;;;14.53;7.57;;;11.80;99.90;;;;;;5193032;28;20774;-55
2022/05/05 04:45:05;;;;;;;11.80;7.07;;;11.80;99.90;;;;;;5195710;28;20190;-57
2022/05/05 04:47:35;;;;;;;9.83;7.70;;;11.80;99.90;;;;;;5198625;28;20510;-55
2022/05/05 04:50:06;;;;;;;18.70;8.30;;;11.90;99.90;;;;;;5196090;28;20458;-57
2022/05/05 04:52:37;;;;;;;9.43;7.67;;;11.90;99.90;;;;;;5196621;28;20276;-56
2022/05/05 04:55:08;;;;;;;9.83;8.80;;;11.90;99.90;;;;;;5200773;28;20430;-54
2022/05/05 04:57:39;;;;;;;13.27;7.33;;;12.00;99.90;;;;;;5198289;28;20191;-54
2022/05/05 05:00:10;;;;;;;9.20;7.83;;;12.00;99.90;;;;;;5197000;28;21014;-54
2022/05/05 05:02:40;;;;;;;11.53;7.20;;;12.10;99.90;;;;;;5186833;28;20185;-54
2022/05/05 05:05:11;;;;;;;13.53;7.47;;;12.10;99.90;;;;;;5201637;28;20194;-55
2022/05/05 05:07:41;;;;;;;10.20;7.63;;;12.20;99.90;;;;;;5187025;28;20457;-56
2022/05/05 05:10:12;;;;;;;10.67;8.93;;;12.40;99.90;;;;;;5198999;28;20538;-55
2022/05/05 05:12:43;;;;;;;12.13;7.20;;;12.50;99.90;;;;;;5195614;28;20179;-56
2022/05/05 05:15:14;;;;;;;13.23;8.00;;;12.70;99.90;;;;;;5215629;28;20176;-56
2022/05/05 05:17:45;;;;;;;9.40;7.40;;;12.80;99.90;;;;;;5203055;28;20175;-55
2022/05/05 05:20:16;;;;;;;10.57;7.83;;;12.80;99.90;;;;;;5203560;28;20470;-56
2022/05/05 05:22:47;;;;;;;14.13;8.37;;;12.90;99.90;;;;;;5201912;28;20686;-56
2022/05/05 05:25:18;;;;;;;12.53;7.73;;;12.90;99.90;;;;;;5200805;28;20183;-56
2022/05/05 05:27:48;;;;;;;19.00;10.03;;;12.80;99.90;;;;;;5200139;28;20219;-55
2022/05/05 05:30:19;;;;;;;8.07;7.37;;;12.90;99.90;;;;;;5193885;28;20284;-55
2022/05/05 05:32:49;;;;;;;17.07;9.80;;;13.00;99.90;;;;;;5206926;28;20183;-54
2022/05/05 05:35:20;;;;;;;10.63;8.00;;;13.00;99.90;;;;;;5202740;28;20191;-54
2022/05/05 05:37:51;;;;;;;8.97;7.10;;;13.00;99.90;;;;;;5201175;28;20187;-56
2022/05/05 05:40:22;;;;;;;18.40;8.57;;;12.90;99.90;;;;;;5206502;28;20313;-55
2022/05/05 05:42:52;;;;;;;13.00;8.40;;;12.80;99.90;;;;;;5207780;28;20788;-55
2022/05/05 05:45:24;;;;;;;14.30;7.57;;;12.80;99.90;;;;;;5204484;28;20184;-54
2022/05/05 05:47:54;;;;;;;11.90;8.63;;;12.60;99.90;;;;;;5207644;28;20591;-56
2022/05/05 05:50:27;;;;;;;15.43;8.57;;;12.60;99.90;;;;;;5207230;28;20456;-54
2022/05/05 05:52:58;;;;;;;14.03;8.20;;;12.70;99.90;;;;;;5202314;28;20540;-55
2022/05/05 05:55:29;;;;;;;11.17;8.50;;;12.70;99.90;;;;;;5196779;28;20502;-58
2022/05/05 05:58:00;;;;;;;9.20;8.27;;;12.80;99.90;;;;;;5193245;28;20431;-56
2022/05/05 06:00:32;;;;;;;12.77;7.87;;;12.80;99.90;;;;;;5196877;28;22196;-54
2022/05/05 06:05:52;;;;;;;13.00;7.70;;;13.10;99.90;;;;;;5201711;28;20430;-53
2022/05/05 06:08:22;;;;;;;11.67;7.97;;;13.30;99.90;;;;;;5197333;28;20791;-56
2022/05/05 06:10:53;;;;;;;19.70;8.57;;;13.30;99.90;;;;;;5201580;28;20286;-55
2022/05/05 06:13:24;;;;;;;11.20;7.70;;;13.20;99.90;;;;;;5216061;28;21178;-54
2022/05/05 06:15:54;;;;;;;10.37;7.37;;;13.20;99.90;;;;;;5201930;28;20546;-56
2022/05/05 06:18:25;;;;;;;12.13;8.43;;;13.20;99.90;;;;;;5203419;28;20215;-55
2022/05/05 06:20:56;;;;;;;18.93;7.37;;;13.40;99.90;;;;;;5199151;28;20250;-57
2022/05/05 06:23:26;;;;;;;14.40;7.40;;;13.70;99.90;;;;;;5202764;28;20195;-54
2022/05/05 06:25:57;;;;;;;10.33;7.47;;;14.10;99.90;;;;;;5204457;28;20219;-54
2022/05/05 06:28:28;;;;;;;9.30;6.70;;;14.80;99.90;;;;;;5205230;28;20180;-55
2022/05/05 06:30:58;;;;;;;14.70;7.13;;;16.20;99.90;;;;;;5204032;28;20204;-55
2022/05/05 06:33:29;;;;;;;7.70;6.30;;;18.60;99.90;;;;;;5200573;28;20192;-56
2022/05/05 06:36:00;;;;;;;16.23;5.90;;;20.10;96.00;;;;;;5206311;28;20649;-56
2022/05/05 06:38:32;;;;;;;10.43;6.00;;;21.40;77.50;;;;;;5203917;28;20191;-55
2022/05/05 06:41:02;;;;;;;9.47;6.20;;;22.00;65.60;;;;;;5204149;28;20287;-54
2022/05/05 06:43:34;;;;;;;10.60;5.77;;;21.80;61.60;;;;;;5199311;28;20945;-55
2022/05/05 06:46:04;;;;;;;9.23;5.63;;;20.40;63.80;;;;;;5201655;28;20295;-55
2022/05/05 06:48:35;;;;;;;10.07;6.83;;;19.50;69.80;;;;;;5202449;28;20581;-57
2022/05/05 06:51:06;;;;;;;6.37;5.20;;;18.90;74.30;;;;;;5202335;28;20204;-56
2022/05/05 06:53:36;;;;;;;13.13;5.67;;;18.40;78.30;;;;;;5198732;28;20468;-59
2022/05/05 06:56:07;;;;;;;15.23;7.07;;;17.70;82.80;;;;;;5193577;28;20176;-55
2022/05/05 06:58:37;;;;;;;8.67;6.37;;;16.90;90.80;;;;;;5194082;28;20191;-56
2022/05/05 07:07:03;;;;;;;14.10;7.27;;;16.40;99.90;;;;;;5138185;28;20500;-55
2022/05/05 07:12:23;;;;;;;8.03;5.80;;;17.10;99.20;;;;;;5200815;28;20969;-59
2022/05/05 07:14:53;;;;;;;18.23;7.33;;;17.10;98.20;;;;;;5199498;28;20434;-57
2022/05/05 07:17:25;;;;;;;8.27;6.07;;;17.10;98.10;;;;;;5202720;28;20599;-55
2022/05/05 07:19:56;;;;;;;6.50;5.90;;;17.20;99.30;;;;;;5200315;28;20216;-55
2022/05/05 07:22:26;;;;;;;17.57;5.90;;;17.80;97.20;;;;;;5195343;28;20438;-56
2022/05/05 07:24:57;;;;;;;13.23;6.27;;;18.10;95.30;;;;;;5195005;28;20613;-55
2022/05/05 07:27:28;;;;;;;9.90;6.40;;;18.30;93.70;;;;;;5194195;28;20489;-57
2022/05/05 07:29:58;;;;;;;13.70;6.17;;;18.00;92.90;;;;;;5194984;28;20695;-56
2022/05/05 07:32:29;;;;;;;8.10;6.00;;;17.80;93.30;;;;;;5194074;28;20218;-56
2022/05/05 07:34:59;;;;;;;7.17;6.00;;;17.40;93.30;;;;;;5200370;28;20184;-57
2022/05/05 07:37:32;;;;;;;11.13;5.90;;;17.20;94.50;;;;;;5197524;28;20183;-55
2022/05/05 07:40:03;;;;;;;10.23;5.00;;;17.00;95.90;;;;;;5205416;28;20196;-55
2022/05/05 07:42:37;;;;;;;9.97;6.67;;;17.00;96.20;;;;;;5178521;28;20590;-55
2022/05/05 07:45:08;;;;;;;9.00;6.57;;;16.70;96.30;;;;;;5195262;28;20450;-57
2022/05/05 07:47:39;;;;;;;10.93;6.37;;;16.40;97.70;;;;;;5198449;28;20497;-57
2022/05/05 07:50:10;;;;;;;7.53;6.47;;;16.30;98.90;;;;;;5193805;28;20489;-57
2022/05/05 07:52:40;;;;;;;7.23;6.27;;;16.70;99.90;;;;;;5196979;28;20612;-56
2022/05/05 07:55:11;;;;;;;9.73;5.97;;;17.90;95.50;;;;;;5198653;28;20454;-56
2022/05/05 07:57:43;;;;;;;9.30;6.30;;;19.80;86.00;;;;;;5217387;28;20184;-55
2022/05/05 08:00:15;;;;;;;6.20;5.60;;;22.40;67.60;;;;;;5191499;28;20200;-56
2022/05/05 08:02:46;;;;;;;8.30;5.53;;;24.10;55.50;;;;;;5190287;28;20435;-57
2022/05/05 08:05:17;;;;;;;13.90;5.83;;;25.40;49.60;;;;;;5203099;28;20442;-59
2022/05/05 08:07:49;;;;;;;8.33;5.50;;;25.70;46.70;;;;;;5193588;28;20204;-56
2022/05/05 08:10:21;;;;;;;6.60;5.00;;;26.00;46.70;;;;;;5194104;28;20451;-56
2022/05/05 08:12:52;;;;;;;7.97;5.97;;;27.10;44.50;;;;;;5195941;28;20430;-56
2022/05/05 08:15:22;;;;;;;7.83;5.57;;;27.60;41.90;;;;;;5189331;28;20566;-58
2022/05/05 08:17:53;;;;;;;5.87;4.43;;;27.60;41.30;;;;;;5199370;28;20184;-57
2022/05/05 08:20:24;;;;;;;8.53;5.60;;;28.00;40.90;;;;;;5200640;28;20318;-55
2022/05/05 08:22:55;;;;;;;13.67;5.40;;;28.00;39.00;;;;;;5197091;28;20180;-55
2022/05/05 08:28:29;;;;;;;8.50;5.73;;;27.10;40.80;;;;;;5200964;28;20717;-55
2022/05/05 08:31:00;;;;;;;5.60;4.77;;;26.30;42.00;;;;;;5206152;28;20486;-56
2022/05/05 08:33:31;;;;;;;9.30;5.57;;;26.30;42.10;;;;;;5210724;28;20506;-57
2022/05/05 08:36:02;;;;;;;6.00;4.93;;;26.70;42.10;;;;;;5198669;28;20188;-56
2022/05/05 08:38:33;;;;;;;11.40;4.47;;;26.70;41.30;;;;;;5203932;28;20536;-58
2022/05/05 08:41:08;;;;;;;9.57;5.90;;;26.80;41.70;;;;;;5198600;28;20469;-56
2022/05/05 08:43:40;;;;;;;5.23;4.57;;;26.00;42.10;;;;;;5200081;28;20492;-56
2022/05/05 08:46:14;;;;;;;5.80;4.23;;;25.70;43.30;;;;;;5196126;28;20556;-56
2022/05/05 08:48:45;;;;;;;20.93;6.77;;;25.30;44.90;;;;;;5205368;28;20445;-55
2022/05/05 08:51:18;;;;;;;12.53;5.10;;;24.30;44.90;;;;;;5203849;28;20989;-56
2022/05/05 08:53:53;;;;;;;8.83;5.00;;;23.40;46.30;;;;;;5205546;28;20960;-57
2022/05/05 08:56:23;;;;;;;8.60;5.40;;;22.10;49.00;;;;;;5198047;28;20452;-56
2022/05/05 08:58:54;;;;;;;4.83;4.43;;;21.40;50.80;;;;;;5213446;28;20438;-56
2022/05/05 09:01:27;;;;;;;8.43;4.97;;;21.00;51.60;;;;;;5198614;28;20183;-57
2022/05/05 09:03:58;;;;;;;13.47;6.37;;;20.60;52.20;;;;;;5208000;28;20183;-56
2022/05/05 09:06:51;;;;;;;28.97;7.70;;;20.10;53.60;;;;;;5199219;28;20467;-55
2022/05/05 09:09:35;;;;;;;16.13;4.80;;;19.70;54.70;;;;;;5193523;28;20195;-56
2022/05/05 09:12:16;;;;;;;32.77;7.53;;;19.50;54.90;;;;;;5197066;28;20431;-55
2022/05/05 09:14:53;;;;;;;11.17;6.10;;;19.00;56.20;;;;;;5200126;28;20524;-54
2022/05/05 09:17:26;;;;;;;6.00;5.00;;;18.50;57.60;;;;;;5207365;28;20446;-55
2022/05/05 09:20:00;;;;;;;6.10;5.13;;;18.30;57.10;;;;;;5204841;28;20476;-57
2022/05/05 09:22:30;;;;;;;8.97;4.97;;;18.20;58.80;;;;;;5205022;28;21004;-56
2022/05/05 09:25:02;;;;;;;9.93;5.73;;;18.30;59.80;;;;;;5201594;28;20438;-56
2022/05/05 09:27:36;;;;;;;7.50;4.93;;;18.30;59.40;;;;;;5195990;28;20211;-57
2022/05/05 09:30:12;;;;;;;13.03;5.53;;;18.30;59.10;;;;;;5195008;28;20561;-57
2022/05/05 09:32:44;;;;;;;10.40;6.10;;;18.50;58.60;;;;;;5212394;28;20441;-57
2022/05/05 09:35:19;;;;;;;6.00;4.40;;;18.60;59.10;;;;;;5208358;28;20802;-58
2022/05/05 09:37:52;;;;;;;11.17;5.93;;;18.40;59.20;;;;;;5201218;28;21024;-57
2022/05/05 09:40:24;;;;;;;5.37;4.87;;;18.10;60.50;;;;;;5198321;28;20631;-57
2022/05/05 09:42:55;;;;;;;10.20;4.57;;;18.10;60.50;;;;;;5197053;28;20944;-56
2022/05/05 09:45:33;;;;;;;9.63;6.30;;;18.30;59.70;;;;;;5200501;28;20500;-58
2022/05/05 09:48:06;;;;;;;5.10;4.70;;;18.50;59.10;;;;;;5203115;28;20477;-57
2022/05/05 09:50:38;;;;;;;8.30;4.20;;;18.60;58.80;;;;;;5198750;28;20450;-57
2022/05/05 09:58:54;;;;;;;4.23;3.87;;;18.80;56.50;;;;;;5197561;28;20449;-57
2022/05/05 10:01:31;;;;;;;10.10;4.33;;;18.90;56.40;;;;;;5197123;28;20449;-57
2022/05/05 10:04:03;;;;;;;6.77;4.43;;;19.10;56.10;;;;;;5201855;28;20434;-57
2022/05/05 10:06:37;;;;;;;6.97;4.70;;;19.00;56.50;;;;;;5201238;28;20473;-58
2022/05/05 10:09:13;;;;;;;7.30;4.63;;;19.10;56.50;;;;;;5211297;28;20443;-57
2022/05/05 10:11:44;;;;;;;13.17;5.40;;;19.20;55.40;;;;;;5195076;28;20965;-57
2022/05/05 10:14:16;;;;;;;8.30;4.47;;;19.10;53.60;;;;;;5193974;28;20455;-57
2022/05/05 10:16:46;;;;;;;7.13;4.60;;;18.80;53.60;;;;;;5194034;28;20191;-56
2022/05/05 10:19:17;;;;;;;4.33;3.93;;;18.50;54.30;;;;;;5199290;28;20489;-57
2022/05/05 10:22:18;;;;;;;6.30;4.40;;;18.60;54.80;;;;;;5201725;28;20678;-58
2022/05/05 10:24:57;;;;;;;12.40;5.10;;;18.80;54.20;;;;;;5194304;28;20196;-59
2022/05/05 10:27:27;;;;;;;9.03;4.40;;;18.70;54.40;;;;;;5189856;28;20476;-58
2022/05/05 10:30:01;;;;;;;6.90;3.80;;;18.60;54.40;;;;;;5205188;28;20446;-57
2022/05/05 10:32:33;;;;;;;5.80;3.70;;;18.70;54.90;;;;;;5198121;28;20191;-57
2022/05/05 10:35:13;;;;;;;6.60;3.73;;;18.90;54.30;;;;;;5216236;28;20441;-57
2022/05/05 10:37:44;;;;;;;5.70;4.77;;;19.10;54.20;;;;;;5203404;28;20914;-59
2022/05/05 10:40:15;;;;;;;12.47;5.10;;;19.00;54.60;;;;;;5179903;28;20477;-58
2022/05/05 10:42:51;;;;;;;8.17;4.73;;;18.90;54.80;;;;;;5197400;28;20593;-57
2022/05/05 10:45:30;;;;;;;8.80;4.87;;;18.90;55.00;;;;;;5191725;28;20210;-56
2022/05/05 10:48:04;;;;;;;4.83;4.40;;;19.20;55.30;;;;;;5195433;28;20865;-57
2022/05/05 10:50:43;;;;;;;6.63;4.13;;;19.20;54.40;;;;;;5212765;28;20485;-58
2022/05/05 10:53:25;;;;;;;8.90;5.00;;;19.20;54.50;;;;;;5198308;28;21004;-57
2022/05/05 10:55:58;;;;;;;7.10;4.07;;;19.20;54.60;;;;;;5201336;28;20430;-57
2022/05/05 10:58:55;;;;;;;5.93;3.80;;;19.50;54.30;;;;;;5201866;28;20477;-58
2022/05/05 11:01:27;;;;;;;7.00;4.60;;;19.80;53.70;;;;;;5198526;28;21101;-58
2022/05/05 11:04:20;;;;;;;12.13;4.33;;;19.70;53.80;;;;;;5202327;28;20505;-58
2022/05/05 11:07:25;;;;;;;6.67;4.80;;;19.80;54.30;;;;;;5195410;28;20470;-58
2022/05/05 11:09:57;;;;;;;8.73;4.90;;;19.30;53.30;;;;;;5199371;28;20584;-57
2022/05/05 11:12:33;;;;;;;7.13;5.00;;;19.10;53.70;;;;;;5201602;28;20867;-57
2022/05/05 11:24:00;;;;;;;20.23;9.90;;;19.30;51.90;;;;;;5200339;28;20441;-57
2022/05/05 11:26:32;;;;;;;12.20;6.70;;;19.50;52.10;;;;;;5200275;28;20462;-57
2022/05/05 11:29:14;;;;;;;7.23;5.00;;;19.80;51.80;;;;;;5202909;28;20454;-57
2022/05/05 11:31:59;;;;;;;9.43;5.30;;;20.00;50.60;;;;;;5200437;28;20521;-58
2022/05/05 11:34:32;;;;;;;8.83;5.50;;;19.90;50.70;;;;;;5217382;28;20929;-57
2022/05/05 11:37:05;;;;;;;6.33;4.70;;;19.80;49.80;;;;;;5202565;28;20544;-56
2022/05/05 11:39:36;;;;;;;9.57;4.50;;;20.00;50.40;;;;;;5201650;28;20469;-58
2022/05/05 11:42:11;;;;;;;8.97;4.60;;;20.30;50.50;;;;;;5194046;28;20464;-58
2022/05/05 11:44:43;;;;;;;6.77;5.37;;;20.40;50.00;;;;;;5203505;28;20616;-57
2022/05/05 11:47:17;;;;;;;7.67;5.00;;;20.80;49.00;;;;;;5196036;28;20962;-57
2022/05/05 11:49:51;;;;;;;10.87;5.07;;;20.70;49.00;;;;;;5202248;28;20453;-58
2022/05/05 11:52:24;;;;;;;9.57;4.50;;;20.90;48.30;;;;;;5196471;28;20450;-57
2022/05/05 11:54:56;;;;;;;6.60;4.20;;;20.50;47.00;;;;;;5213041;28;20500;-58
2022/05/05 11:57:31;;;;;;;7.00;5.07;;;20.30;48.00;;;;;;5201417;28;20461;-57
2022/05/05 12:02:53;;;;;;;8.73;5.40;;;19.70;49.70;;;;;;5201673;28;20441;-58
2022/05/05 12:05:25;;;;;;;4.93;4.53;;;19.40;50.40;;;;;;5219115;28;20446;-57
2022/05/05 12:07:56;;;;;;;12.13;4.40;;;19.10;51.20;;;;;;5199804;28;20539;-58
2022/05/05 12:10:35;;;;;;;5.80;3.90;;;18.90;52.00;;;;;;5197968;28;20473;-58
2022/05/05 12:13:06;;;;;;;7.43;3.80;;;19.00;51.70;;;;;;5207750;28;20521;-58
2022/05/05 12:15:38;;;;;;;10.00;4.73;;;19.10;51.20;;;;;;5220747;28;20439;-57
2022/05/05 12:18:15;;;;;;;5.97;4.77;;;19.00;51.30;;;;;;5198843;28;20494;-58
2022/05/05 12:20:46;;;;;;;7.10;5.27;;;18.90;51.70;;;;;;5203839;28;20480;-57
2022/05/05 12:23:22;;;;;;;7.80;3.60;;;18.90;51.60;;;;;;5215399;28;20960;-57
2022/05/05 12:25:53;;;;;;;4.43;4.13;;;19.10;51.30;;;;;;5205279;28;20187;-57
2022/05/05 12:28:28;;;;;;;15.63;5.57;;;19.40;51.00;;;;;;5199997;28;21082;-56
2022/05/05 12:30:59;;;;;;;28.40;6.63;;;19.60;50.40;;;;;;5197187;28;20249;-55
2022/05/05 12:33:37;;;;;;;9.33;5.80;;;19.80;49.60;;;;;;5202033;28;20438;-58
2022/05/05 12:36:14;;;;;;;5.30;4.67;;;19.90;49.50;;;;;;5201562;28;20188;-57
2022/05/05 12:38:45;;;;;;;4.70;4.07;;;20.20;48.70;;;;;;5205822;28;20499;-58
2022/05/05 12:41:15;;;;;;;10.10;4.63;;;20.30;48.50;;;;;;5216495;28;20787;-57
2022/05/05 12:43:46;;;;;;;12.40;4.67;;;20.20;48.00;;;;;;5202733;28;20188;-57
2022/05/05 12:46:18;;;;;;;3.90;3.60;;;19.80;48.50;;;;;;5202448;28;20279;-57
2022/05/05 12:48:51;;;;;;;9.10;4.47;;;19.70;49.10;;;;;;5210211;28;20188;-57
2022/05/05 12:51:30;;;;;;;14.00;4.60;;;19.80;49.30;;;;;;5198557;28;20946;-58
2022/05/05 12:59:46;;;;;;;8.30;3.97;;;20.00;47.60;;;;;;5199499;28;20974;-57
2022/05/05 13:02:17;;;;;;;6.37;4.17;;;19.70;46.30;;;;;;5205169;28;20502;-57
2022/05/05 13:04:48;;;;;;;7.47;3.77;;;19.50;46.70;;;;;;5197436;28;20852;-57
2022/05/05 13:07:19;;;;;;;5.27;4.63;;;19.40;46.90;;;;;;5195213;28;20205;-56
2022/05/05 13:09:51;;;;;;;8.43;4.00;;;19.50;47.60;;;;;;5201415;28;20458;-57
2022/05/05 13:12:21;;;;;;;4.47;4.03;;;19.60;47.00;;;;;;5201347;28;20671;-58
2022/05/05 13:14:52;;;;;;;3.97;3.50;;;19.90;46.70;;;;;;5207491;28;20438;-58
2022/05/05 13:17:23;;;;;;;8.63;4.10;;;20.10;46.50;;;;;;5199122;28;20181;-59
2022/05/05 13:19:53;;;;;;;9.87;4.60;;;20.20;45.20;;;;;;5201928;28;20219;-59
2022/05/05 13:22:24;;;;;;;3.87;3.50;;;20.20;44.50;;;;;;5200870;28;20644;-57
2022/05/05 13:24:54;;;;;;;4.47;4.07;;;20.40;43.50;;;;;;5199966;28;20524;-57
2022/05/05 13:27:25;;;;;;;7.73;4.70;;;20.70;43.50;;;;;;5198492;28;20227;-57
2022/05/05 13:29:55;;;;;;;6.00;4.73;;;20.70;43.10;;;;;;5219515;28;20196;-59
2022/05/05 13:32:26;;;;;;;3.90;3.47;;;20.70;43.70;;;;;;5200106;28;20184;-57
2022/05/05 13:34:57;;;;;;;10.97;4.17;;;20.70;43.90;;;;;;5200329;28;20183;-60
2022/05/05 13:37:27;;;;;;;6.33;4.33;;;20.70;43.20;;;;;;5200230;28;20191;-58
2022/05/05 13:39:58;;;;;;;6.20;4.37;;;20.50;42.90;;;;;;5204009;28;22132;-58
2022/05/05 13:42:29;;;;;;;7.27;4.23;;;20.50;43.20;;;;;;5202642;28;20184;-57
2022/05/05 13:45:00;;;;;;;6.53;3.20;;;20.20;42.70;;;;;;5196056;28;20191;-59
2022/05/05 13:47:30;;;;;;;19.83;4.53;;;20.30;43.50;;;;;;5201875;28;20227;-58
2022/05/05 13:50:02;;;;;;;14.87;4.03;;;20.30;43.90;;;;;;5195394;28;20982;-57
2022/05/05 13:52:34;;;;;;;10.33;4.70;;;20.50;44.30;;;;;;5199979;28;20188;-60
2022/05/05 13:55:05;;;;;;;8.00;5.80;;;20.50;43.50;;;;;;5200953;28;20470;-57
2022/05/05 13:57:37;;;;;;;9.13;5.60;;;20.40;43.90;;;;;;5202667;28;21119;-59